Skip Navigation LinksHome page > Weather > Current weather Skip Navigation Links

Current Weather

Greater Rockford, Rockford, Ill.

For information only: do not use for flight planning or navigation.
Latest weather
Observation time Monday, November 29, 2021 2:54 PM CST
Local time Monday, November 29, 2021 3:10 PM CST
Flight conditions Visual Meteorological Conditions
Winds
Wind direction South (170°)
Wind speed 16 mph
Wind gusting to 29 mph
Visibility 10 mi.
Sky condition
Ceiling unlimited
Cloud layer few clouds 8,000 ft.
Cloud layer scattered clouds 13,000 ft.
Cloud layer scattered clouds 25,000 ft.
Temperature 45°F
Dewpoint 22°F
Altimeter 29.80 in.Hg
Pressure change last 3 hours0.13 in.Hg
Pressure falling more slowly
Derived measurements
Relative humidity 40%
Wind chill 38°F
Density altitude 10 ft.
Sea-level pressure 29.81 in.Hg
Remarks
Automated weather observing station with precipitation discriminator.
METAR KRFD 292054Z 17014G25KT 10SM FEW080 SCT130 SCT250 07/M06 A2980 RMK AO2 SLP096 T00721056 56043

Settings

Location code

InnerDrive.Weather 4.0.6770.0 Release CLR 4.0.30319.42000
Copyright ©2018 Inner Drive Technology. All rights reserved. Portions Copyright ©1986-2018 David Braverman.

Find weather

Site navigation


Skip Navigation Links

Place info

Page info

PayPal - The safer, easier way to pay online!

Return home.

Copyright ©2021 Inner Drive Technology. Purveyors of fine, hand-crafted computer software. Page printed 2021-11-29T21:10:34 UTC.